createdAt,value
2023-03-15T00:02:13.481Z,1.00
2023-03-15T00:04:40.098Z,0.77
2023-03-15T00:07:06.595Z,1.02
2023-03-15T00:09:32.975Z,1.10
2023-03-15T00:11:59.364Z,1.08
2023-03-15T00:14:25.772Z,0.95
2023-03-15T00:16:52.230Z,0.90
2023-03-15T00:19:18.633Z,1.25
2023-03-15T00:21:45.085Z,0.80
2023-03-15T00:24:11.607Z,0.80
2023-03-15T00:26:38.475Z,1.23
2023-03-15T00:29:04.936Z,1.08
2023-03-15T00:31:31.673Z,1.20
2023-03-15T00:33:58.103Z,0.98
2023-03-15T00:36:24.849Z,0.63
2023-03-15T00:38:52.209Z,0.98
2023-03-15T00:41:19.860Z,1.23
2023-03-15T00:43:47.096Z,0.98
2023-03-15T00:46:17.215Z,1.10
2023-03-15T00:48:43.694Z,1.00
2023-03-15T00:51:12.049Z,1.02
2023-03-15T00:53:39.316Z,0.98
2023-03-15T00:56:26.022Z,1.10
2023-03-15T00:58:55.504Z,0.80
2023-03-15T01:01:23.392Z,0.80
2023-03-15T01:03:49.952Z,0.90
2023-03-15T01:06:24.217Z,1.38
2023-03-15T01:08:51.528Z,0.98
2023-03-15T01:11:19.639Z,0.98
2023-03-15T01:13:46.071Z,0.80
2023-03-15T01:16:13.694Z,1.27
2023-03-15T01:18:40.232Z,2.05
2023-03-15T01:21:07.326Z,1.60
2023-03-15T01:23:33.796Z,0.98
2023-03-15T01:26:04.300Z,1.50
2023-03-15T01:28:30.806Z,1.10
2023-03-15T01:30:59.415Z,0.90
2023-03-15T01:33:26.202Z,1.73
2023-03-15T01:36:02.997Z,0.90
2023-03-15T01:38:29.767Z,1.30
2023-03-15T01:40:56.197Z,1.05
2023-03-15T01:43:23.595Z,0.77
2023-03-15T01:46:02.271Z,1.00
2023-03-15T01:48:44.931Z,0.82
2023-03-15T01:51:26.150Z,1.05
2023-03-15T01:54:19.138Z,0.75
2023-03-15T01:56:47.629Z,0.73
2023-03-15T01:59:16.712Z,1.50
2023-03-15T02:01:45.636Z,1.02
2023-03-15T02:04:15.540Z,0.90
2023-03-15T02:06:46.584Z,1.13
2023-03-15T02:09:17.375Z,1.20
2023-03-15T02:11:43.886Z,1.52
2023-03-15T02:14:12.419Z,0.93
2023-03-15T02:16:38.984Z,2.17
2023-03-15T02:19:06.973Z,0.88
2023-03-15T02:21:38.359Z,0.90
2023-03-15T02:24:23.555Z,1.23
2023-03-15T02:26:57.324Z,1.02
2023-03-15T02:29:24.944Z,1.13
2023-03-15T02:31:52.068Z,0.70
2023-03-15T02:34:18.614Z,0.80
2023-03-15T02:36:45.079Z,0.80
2023-03-15T02:39:18.898Z,0.93
2023-03-15T02:41:48.158Z,1.10
2023-03-15T02:44:17.339Z,0.93
2023-03-15T02:46:45.043Z,0.95
2023-03-15T02:49:13.434Z,1.17
2023-03-15T02:51:39.880Z,1.00
2023-03-15T02:54:06.377Z,1.10
2023-03-15T02:56:35.775Z,1.00
2023-03-15T02:59:02.224Z,1.00
2023-03-15T03:01:28.686Z,1.25
2023-03-15T03:03:55.085Z,1.35
2023-03-15T03:06:21.509Z,1.13
2023-03-15T03:08:47.911Z,0.88
2023-03-15T03:11:14.746Z,1.20
2023-03-15T03:13:41.602Z,1.23
2023-03-15T03:16:08.416Z,1.10
2023-03-15T03:18:35.766Z,1.58
2023-03-15T03:21:03.822Z,1.02
2023-03-15T03:23:30.996Z,1.10
2023-03-15T03:25:57.871Z,1.10
2023-03-15T03:28:25.488Z,0.75
2023-03-15T03:30:52.583Z,0.82
2023-03-15T03:33:19.466Z,1.08
2023-03-15T03:35:45.931Z,1.05
2023-03-15T03:38:12.425Z,0.95
2023-03-15T03:40:39.148Z,0.90
2023-03-15T03:43:05.810Z,0.90
2023-03-15T03:45:32.465Z,1.38
2023-03-15T03:47:58.984Z,1.10
2023-03-15T03:50:25.874Z,0.98
2023-03-15T03:52:52.299Z,0.70
2023-03-15T03:55:18.779Z,1.00
2023-03-15T03:57:45.216Z,0.98
2023-03-15T04:00:14.357Z,1.00
2023-03-15T04:02:44.106Z,1.55
2023-03-15T04:05:11.341Z,1.40
2023-03-15T04:07:38.100Z,1.05
2023-03-15T04:10:04.916Z,1.00
2023-03-15T04:12:31.728Z,1.33
2023-03-15T04:15:00.872Z,1.02
2023-03-15T04:17:27.300Z,1.08
2023-03-15T04:19:54.101Z,0.90
2023-03-15T04:22:20.526Z,0.73
2023-03-15T04:24:50.644Z,1.27
2023-03-15T04:27:17.096Z,0.88
2023-03-15T04:29:43.874Z,0.65
2023-03-15T04:32:10.878Z,0.95
2023-03-15T04:34:39.980Z,1.00
2023-03-15T04:37:06.424Z,0.90
2023-03-15T04:39:32.974Z,0.82
2023-03-15T04:41:59.419Z,1.20
2023-03-15T04:44:27.468Z,1.25
2023-03-15T04:46:58.141Z,1.10
2023-03-15T04:51:50.915Z,1.00
2023-03-15T04:54:17.372Z,0.70
2023-03-15T04:56:43.839Z,1.20
2023-03-15T04:59:11.285Z,1.23
2023-03-15T05:01:37.883Z,0.90
2023-03-15T05:04:07.084Z,1.58
2023-03-15T05:06:33.472Z,1.10
2023-03-15T05:09:00.125Z,1.00
2023-03-15T05:11:26.637Z,0.98
2023-03-15T05:13:53.502Z,0.88
2023-03-15T05:16:19.924Z,1.20
2023-03-15T05:18:46.407Z,1.00
2023-03-15T05:21:13.376Z,1.48
2023-03-15T05:23:39.922Z,1.10
2023-03-15T05:26:06.388Z,1.10
2023-03-15T05:28:32.903Z,0.90
2023-03-15T05:31:00.662Z,1.02
2023-03-15T05:33:27.354Z,1.20
2023-03-15T05:35:56.034Z,0.90
2023-03-15T05:38:28.508Z,1.20
2023-03-15T05:40:54.992Z,1.25
2023-03-15T05:43:21.699Z,0.98
2023-03-15T05:45:48.725Z,1.13
2023-03-15T05:48:16.563Z,1.27
2023-03-15T05:50:43.032Z,1.38
2023-03-15T05:53:09.839Z,1.80
2023-03-15T05:55:37.182Z,1.60
2023-03-15T05:58:05.789Z,1.75
2023-03-15T06:00:32.233Z,1.80
2023-03-15T06:02:59.342Z,1.55
2023-03-15T06:05:26.063Z,1.05
2023-03-15T06:07:52.648Z,1.30
2023-03-15T06:10:19.257Z,1.30
2023-03-15T06:12:45.713Z,2.22
2023-03-15T06:15:12.123Z,2.78
2023-03-15T06:17:38.564Z,3.47
2023-03-15T06:20:05.397Z,3.33
2023-03-15T06:22:31.796Z,3.55
2023-03-15T06:24:58.325Z,3.15
2023-03-15T06:27:24.802Z,3.85
2023-03-15T06:29:51.280Z,3.80
2023-03-15T06:32:17.711Z,2.53
2023-03-15T06:34:44.233Z,1.70
2023-03-15T06:37:16.188Z,1.60
2023-03-15T06:39:44.769Z,1.60
2023-03-15T06:42:13.835Z,1.42
2023-03-15T06:44:41.327Z,2.00
2023-03-15T06:47:08.230Z,1.52
2023-03-15T06:49:35.394Z,1.60
2023-03-15T06:52:01.898Z,1.40
2023-03-15T06:54:28.345Z,1.95
2023-03-15T06:56:54.771Z,1.00
2023-03-15T06:59:21.231Z,1.27
2023-03-15T07:01:47.820Z,1.10
2023-03-15T07:04:14.270Z,1.35
2023-03-15T07:06:40.729Z,1.40
2023-03-15T07:09:07.490Z,1.52
2023-03-15T07:11:35.838Z,1.08
2023-03-15T07:14:02.299Z,1.08
2023-03-15T07:16:28.781Z,1.52
2023-03-15T07:18:56.611Z,1.30
2023-03-15T07:21:23.085Z,1.40
2023-03-15T07:23:49.520Z,1.67
2023-03-15T07:26:16.025Z,1.38
2023-03-15T07:28:44.679Z,2.55
2023-03-15T07:31:11.638Z,0.80
2023-03-15T07:33:38.645Z,1.00
2023-03-15T07:36:06.348Z,1.00
2023-03-15T07:38:33.632Z,1.30
2023-03-15T07:41:04.566Z,1.10
2023-03-15T07:43:31.261Z,0.93
2023-03-15T07:45:57.663Z,1.35
2023-03-15T07:48:24.191Z,0.75
2023-03-15T07:50:50.651Z,0.90
2023-03-15T07:53:17.069Z,1.35
2023-03-15T07:55:43.757Z,1.20
2023-03-15T07:58:10.275Z,0.75
2023-03-15T08:00:36.783Z,1.17
2023-03-15T08:03:03.281Z,1.13
2023-03-15T08:05:29.823Z,1.15
2023-03-15T08:07:56.682Z,1.52
2023-03-15T08:10:23.219Z,1.00
2023-03-15T08:12:49.639Z,1.60
2023-03-15T08:15:16.352Z,1.63
2023-03-15T08:17:42.904Z,0.80
2023-03-15T08:20:11.621Z,1.20
2023-03-15T08:22:39.201Z,1.70
2023-03-15T08:25:06.192Z,1.10
2023-03-15T08:27:34.338Z,1.40
2023-03-15T08:30:01.371Z,0.90
2023-03-15T08:32:27.829Z,0.80
2023-03-15T08:34:54.360Z,0.90
2023-03-15T08:37:21.092Z,1.02
2023-03-15T08:39:47.534Z,1.00
2023-03-15T08:42:13.951Z,1.30
2023-03-15T08:44:40.624Z,0.88
2023-03-15T08:47:07.316Z,0.93
2023-03-15T08:49:33.754Z,1.35
2023-03-15T08:52:00.379Z,1.20
2023-03-15T08:54:27.578Z,1.50
2023-03-15T08:56:54.028Z,0.98
2023-03-15T08:59:31.517Z,1.10
2023-03-15T09:01:59.998Z,0.93
2023-03-15T09:04:26.540Z,1.05
2023-03-15T09:06:53.867Z,1.30
2023-03-15T09:09:20.258Z,1.13
2023-03-15T09:11:46.621Z,1.10
2023-03-15T09:14:13.064Z,1.15
2023-03-15T09:16:39.442Z,1.08
2023-03-15T09:19:05.895Z,0.82
2023-03-15T09:21:32.286Z,1.35
2023-03-15T09:23:58.698Z,0.93
2023-03-15T09:26:25.158Z,0.88
2023-03-15T09:28:51.606Z,0.55
2023-03-15T09:31:18.132Z,1.05
2023-03-15T09:33:46.381Z,1.25
2023-03-15T09:36:12.816Z,0.80
2023-03-15T09:38:39.278Z,1.08
2023-03-15T09:41:06.381Z,1.08
2023-03-15T09:43:57.392Z,0.63
2023-03-15T09:49:12.684Z,1.00
2023-03-15T09:51:39.057Z,0.98
2023-03-15T09:54:05.885Z,0.98
2023-03-15T09:56:40.355Z,0.82
2023-03-15T09:59:07.203Z,0.60
2023-03-15T10:01:38.307Z,1.10
2023-03-15T10:04:18.786Z,0.88
2023-03-15T10:06:48.062Z,0.80
2023-03-15T10:09:19.713Z,0.73
2023-03-15T10:11:50.212Z,0.73
2023-03-15T10:14:20.239Z,0.80
2023-03-15T10:16:47.936Z,1.20
2023-03-15T10:19:15.077Z,1.02
2023-03-15T10:22:00.633Z,0.90
2023-03-15T10:24:35.913Z,1.00
2023-03-15T10:27:09.089Z,0.85
2023-03-15T10:29:36.656Z,0.70
2023-03-15T10:32:05.233Z,1.10
2023-03-15T10:34:31.684Z,1.00
2023-03-15T10:36:58.095Z,1.48
2023-03-15T10:39:27.643Z,0.82
2023-03-15T10:41:54.092Z,0.73
2023-03-15T10:44:22.650Z,0.75
2023-03-15T10:47:22.165Z,1.10
2023-03-15T10:49:50.769Z,0.90
2023-03-15T10:52:27.653Z,0.73
2023-03-15T10:54:58.733Z,0.68
2023-03-15T10:57:34.525Z,0.85
2023-03-15T11:00:06.862Z,0.75
2023-03-15T11:02:33.373Z,1.00
2023-03-15T11:05:04.159Z,0.70
2023-03-15T11:07:34.276Z,0.73
2023-03-15T11:10:01.616Z,0.70
2023-03-15T11:12:33.299Z,1.25
2023-03-15T11:15:15.490Z,1.15
2023-03-15T11:17:46.503Z,0.80
2023-03-15T11:20:26.068Z,0.95
2023-03-15T11:22:53.778Z,0.70
2023-03-15T11:25:21.632Z,0.98
2023-03-15T11:27:53.493Z,0.90
2023-03-15T11:30:25.504Z,0.85
2023-03-15T11:32:52.143Z,0.70
2023-03-15T11:35:29.119Z,0.68
2023-03-15T11:38:06.226Z,1.17
2023-03-15T11:40:48.133Z,0.80
2023-03-15T11:43:19.862Z,0.80
2023-03-15T11:46:00.101Z,0.80
2023-03-15T11:48:44.078Z,1.33
2023-03-15T11:51:12.006Z,0.93
2023-03-15T11:53:44.183Z,0.90
2023-03-15T11:56:21.076Z,0.50
2023-03-15T11:59:04.048Z,0.50
2023-03-15T12:01:31.139Z,0.65
2023-03-15T12:04:36.363Z,1.00
2023-03-15T12:07:05.795Z,0.55
2023-03-15T12:09:32.356Z,0.82
2023-03-15T12:11:59.692Z,1.02
2023-03-15T12:14:33.168Z,0.57
2023-03-15T12:17:18.397Z,1.20
2023-03-15T12:19:44.914Z,0.80
2023-03-15T12:22:15.533Z,0.63
2023-03-15T12:24:44.256Z,0.70
2023-03-15T12:27:18.461Z,0.70
2023-03-15T12:29:48.682Z,1.70
2023-03-15T12:32:16.427Z,0.90
2023-03-15T12:34:45.781Z,0.82
2023-03-15T12:37:21.058Z,0.90
2023-03-15T12:40:01.059Z,0.70
2023-03-15T12:42:31.704Z,1.10
2023-03-15T12:45:18.465Z,0.60
2023-03-15T12:47:44.862Z,1.13
2023-03-15T12:50:37.851Z,1.00
2023-03-15T12:53:12.022Z,0.65
2023-03-15T12:55:38.881Z,0.80
2023-03-15T12:58:05.360Z,0.80
2023-03-15T13:00:33.377Z,1.23
2023-03-15T13:03:05.850Z,0.80
2023-03-15T13:06:02.797Z,1.02
2023-03-15T13:08:49.753Z,1.10
2023-03-15T13:11:32.966Z,0.85
2023-03-15T13:14:18.159Z,1.38
2023-03-15T13:17:00.348Z,1.00
2023-03-15T13:19:27.532Z,0.90
2023-03-15T13:21:59.880Z,1.35
2023-03-15T13:24:33.424Z,1.38
2023-03-15T13:27:20.124Z,1.45
2023-03-15T13:29:46.532Z,0.80
2023-03-15T13:32:17.128Z,0.80
2023-03-15T13:34:47.414Z,1.58
2023-03-15T13:37:29.097Z,0.90
2023-03-15T13:40:08.726Z,1.27
2023-03-15T13:42:39.290Z,0.80
2023-03-15T13:45:09.060Z,0.80
2023-03-15T13:47:35.477Z,0.90
2023-03-15T13:50:05.830Z,1.00
2023-03-15T13:52:32.363Z,0.95
2023-03-15T13:54:59.465Z,0.80
2023-03-15T13:57:26.875Z,1.30
2023-03-15T13:59:53.247Z,0.70
2023-03-15T14:02:20.973Z,0.70
2023-03-15T14:04:51.784Z,0.90
2023-03-15T14:07:18.170Z,1.70
2023-03-15T14:09:45.525Z,0.85
2023-03-15T14:12:17.888Z,0.70
2023-03-15T14:14:51.547Z,1.10
2023-03-15T14:17:20.720Z,0.82
2023-03-15T14:19:52.452Z,0.68
2023-03-15T14:22:19.301Z,0.90
2023-03-15T14:24:47.690Z,0.60
2023-03-15T14:27:22.119Z,1.20
2023-03-15T14:29:51.469Z,0.90
2023-03-15T14:32:31.832Z,1.52
2023-03-15T14:35:06.477Z,1.33
2023-03-15T14:37:40.458Z,0.98
2023-03-15T14:40:10.775Z,0.70
2023-03-15T14:42:37.175Z,0.80
2023-03-15T14:45:03.747Z,0.95
2023-03-15T14:47:30.256Z,0.70
2023-03-15T14:49:56.866Z,0.77
2023-03-15T14:52:24.805Z,0.70
2023-03-15T14:54:51.489Z,0.60
2023-03-15T14:57:17.975Z,0.70
2023-03-15T14:59:44.372Z,0.90
2023-03-15T15:02:16.917Z,0.80
2023-03-15T15:04:43.990Z,1.05
2023-03-15T15:07:14.566Z,1.02
2023-03-15T15:09:43.832Z,0.90
2023-03-15T15:12:11.161Z,0.85
2023-03-15T15:14:37.591Z,1.02
2023-03-15T15:17:04.289Z,2.20
2023-03-15T15:19:30.719Z,1.05
2023-03-15T15:21:57.469Z,1.10
2023-03-15T15:24:25.431Z,1.17
2023-03-15T15:26:52.041Z,0.90
2023-03-15T15:29:18.424Z,1.00
2023-03-15T15:31:47.630Z,0.90
2023-03-15T15:34:14.893Z,0.82
2023-03-15T15:36:42.662Z,1.00
2023-03-15T15:39:15.192Z,0.60
2023-03-15T15:41:41.590Z,0.82
2023-03-15T15:44:14.222Z,0.65
2023-03-15T15:46:40.769Z,1.75
2023-03-15T15:49:07.168Z,0.85
2023-03-15T15:51:42.304Z,0.50
2023-03-15T15:54:14.757Z,0.70
2023-03-15T15:56:45.313Z,0.52
2023-03-15T15:59:13.650Z,0.60
2023-03-15T16:01:56.649Z,0.85
2023-03-15T16:04:25.849Z,1.00
2023-03-15T16:06:54.536Z,0.90
2023-03-15T16:09:21.566Z,0.70
2023-03-15T16:11:50.537Z,0.77
2023-03-15T16:14:17.158Z,0.80
2023-03-15T16:16:43.647Z,1.98
2023-03-15T16:19:10.069Z,1.17
2023-03-15T16:21:41.270Z,1.00
2023-03-15T16:24:12.438Z,0.68
2023-03-15T16:26:39.605Z,1.00
2023-03-15T16:29:26.954Z,0.80
2023-03-15T16:31:59.180Z,0.55
2023-03-15T16:34:30.248Z,0.65
2023-03-15T16:36:56.673Z,0.73
2023-03-15T16:39:23.155Z,0.85
2023-03-15T16:41:49.598Z,0.80
2023-03-15T16:44:17.395Z,1.00
2023-03-15T16:46:44.010Z,2.22
2023-03-15T16:49:10.602Z,1.25
2023-03-15T16:51:42.311Z,0.90
2023-03-15T16:54:21.780Z,1.00
2023-03-15T16:56:54.040Z,1.15
2023-03-15T16:59:21.197Z,0.90
2023-03-15T17:01:49.281Z,0.77
2023-03-15T17:04:16.273Z,1.17
2023-03-15T17:06:45.332Z,1.40
2023-03-15T17:09:13.830Z,1.13
2023-03-15T17:11:41.152Z,0.90
2023-03-15T17:14:10.992Z,0.82
2023-03-15T17:16:37.459Z,1.75
2023-03-15T17:19:04.373Z,1.33
2023-03-15T17:21:33.792Z,0.80
2023-03-15T17:24:00.493Z,1.13
2023-03-15T17:26:29.440Z,1.02
2023-03-15T17:28:55.845Z,1.30
2023-03-15T17:31:26.070Z,1.50
2023-03-15T17:33:52.504Z,2.75
2023-03-15T17:36:22.814Z,0.80
2023-03-15T17:38:49.624Z,1.27
2023-03-15T17:41:24.257Z,1.40
2023-03-15T17:43:51.188Z,1.08
2023-03-15T17:46:18.215Z,0.90
2023-03-15T17:48:45.004Z,1.30
2023-03-15T17:51:17.356Z,0.95
2023-03-15T17:53:43.849Z,0.95
2023-03-15T17:56:10.296Z,0.90
2023-03-15T17:58:36.735Z,1.00
2023-03-15T18:01:04.485Z,0.95
2023-03-15T18:03:31.380Z,1.15
2023-03-15T18:06:01.269Z,1.00
2023-03-15T18:08:27.732Z,1.10
2023-03-15T18:10:54.537Z,0.98
2023-03-15T18:13:21.489Z,0.85
2023-03-15T18:15:49.676Z,0.77
2023-03-15T18:18:16.254Z,0.85
2023-03-15T18:20:43.121Z,1.15
2023-03-15T18:23:11.732Z,0.90
2023-03-15T18:25:38.136Z,1.27
2023-03-15T18:28:04.666Z,0.80
2023-03-15T18:30:31.500Z,0.88
2023-03-15T18:32:58.324Z,0.95
2023-03-15T18:35:29.643Z,0.80
2023-03-15T18:37:59.466Z,1.02
2023-03-15T18:40:28.915Z,0.95
2023-03-15T18:42:57.027Z,0.82
2023-03-15T18:45:28.491Z,1.20
2023-03-15T18:47:55.207Z,0.85
2023-03-15T18:50:21.684Z,1.35
2023-03-15T18:52:48.498Z,1.17
2023-03-15T18:55:16.442Z,0.80
2023-03-15T18:57:43.234Z,0.95
2023-03-15T19:00:15.019Z,0.70
2023-03-15T19:02:42.111Z,1.00
2023-03-15T19:05:08.794Z,2.38
2023-03-15T19:07:35.258Z,1.40
2023-03-15T19:10:01.691Z,0.95
2023-03-15T19:12:28.227Z,1.77
2023-03-15T19:14:54.602Z,1.98
2023-03-15T19:17:20.979Z,1.60
2023-03-15T19:19:47.358Z,1.30
2023-03-15T19:22:13.742Z,1.40
2023-03-15T19:24:40.237Z,1.00
2023-03-15T19:27:06.698Z,1.00
2023-03-15T19:29:35.239Z,1.20
2023-03-15T19:32:01.824Z,1.58
2023-03-15T19:34:28.273Z,1.70
2023-03-15T19:36:54.672Z,1.70
2023-03-15T19:39:21.063Z,1.83
2023-03-15T19:41:47.550Z,1.60
2023-03-15T19:44:14.159Z,2.35
2023-03-15T19:46:40.985Z,2.72
2023-03-15T19:49:07.523Z,3.00
2023-03-15T19:51:33.890Z,2.20
2023-03-15T19:54:00.729Z,2.15
2023-03-15T19:56:27.136Z,3.15
2023-03-15T19:58:53.530Z,4.70
2023-03-15T20:01:20.017Z,3.83
2023-03-15T20:03:46.586Z,1.88
2023-03-15T20:06:13.967Z,1.45
2023-03-15T20:08:41.637Z,2.60
2023-03-15T20:11:14.846Z,14.65
2023-03-15T20:13:41.304Z,5.70
2023-03-15T20:16:07.988Z,5.57
2023-03-15T20:18:34.502Z,9.93
2023-03-15T20:21:00.931Z,7.55
2023-03-15T20:23:28.234Z,6.40
2023-03-15T20:26:09.896Z,8.27
2023-03-15T20:28:37.576Z,16.17
2023-03-15T20:31:12.272Z,17.67
2023-03-15T20:33:38.757Z,9.13
2023-03-15T20:36:05.688Z,5.32
2023-03-15T20:38:34.300Z,3.40
2023-03-15T20:41:00.998Z,3.45
2023-03-15T20:43:27.491Z,2.95
2023-03-15T20:45:54.508Z,2.28
2023-03-15T20:48:23.461Z,2.67
2023-03-15T20:50:49.874Z,2.45
2023-03-15T20:53:16.276Z,2.13
2023-03-15T20:55:43.563Z,2.35
2023-03-15T20:58:10.021Z,3.30
2023-03-15T21:00:37.322Z,2.95
2023-03-15T21:03:03.779Z,2.97
2023-03-15T21:05:31.474Z,3.00
2023-03-15T21:07:58.069Z,2.15
2023-03-15T21:10:25.294Z,2.38
2023-03-15T21:12:51.836Z,2.58
2023-03-15T21:15:18.906Z,2.97
2023-03-15T21:17:46.140Z,3.08
2023-03-15T21:20:15.324Z,3.30
2023-03-15T21:22:41.971Z,2.88
2023-03-15T21:25:08.674Z,3.05
2023-03-15T21:27:35.156Z,2.75
2023-03-15T21:30:01.591Z,2.47
2023-03-15T21:32:28.134Z,2.97
2023-03-15T21:34:54.563Z,2.30
2023-03-15T21:37:20.990Z,2.17
2023-03-15T21:39:47.406Z,2.03
2023-03-15T21:42:13.782Z,1.65
2023-03-15T21:44:40.628Z,1.90
2023-03-15T21:47:09.128Z,1.38
2023-03-15T21:49:35.577Z,1.30
2023-03-15T21:52:04.887Z,1.40
2023-03-15T21:54:31.278Z,1.40
2023-03-15T21:56:57.770Z,1.10
2023-03-15T21:59:29.925Z,0.70
2023-03-15T22:01:57.132Z,0.85
2023-03-15T22:04:26.742Z,0.90
2023-03-15T22:06:53.493Z,0.88
2023-03-15T22:09:20.231Z,0.90
2023-03-15T22:11:46.794Z,1.30
2023-03-15T22:14:13.214Z,1.20
2023-03-15T22:16:39.737Z,0.85
2023-03-15T22:19:06.954Z,1.08
2023-03-15T22:21:36.378Z,0.85
2023-03-15T22:24:02.757Z,0.70
2023-03-15T22:26:29.255Z,0.50
2023-03-15T22:28:55.768Z,0.60
2023-03-15T22:31:22.266Z,0.57
2023-03-15T22:33:48.743Z,0.60
2023-03-15T22:36:17.163Z,0.82
2023-03-15T22:38:50.306Z,0.60
2023-03-15T22:41:17.915Z,0.85
2023-03-15T22:43:45.410Z,0.55
2023-03-15T22:46:11.883Z,0.70
2023-03-15T22:48:38.338Z,0.52
2023-03-15T22:51:06.127Z,0.85
2023-03-15T22:53:32.928Z,0.80
2023-03-15T22:55:59.554Z,1.00
2023-03-15T22:58:26.357Z,1.45
2023-03-15T23:00:52.972Z,1.38
2023-03-15T23:03:19.421Z,2.05
2023-03-15T23:05:46.107Z,1.52
2023-03-15T23:08:13.008Z,1.55
2023-03-15T23:10:40.736Z,1.33
2023-03-15T23:13:09.124Z,1.45
2023-03-15T23:15:35.520Z,1.77
2023-03-15T23:18:01.988Z,1.60
2023-03-15T23:20:28.842Z,1.48
2023-03-15T23:22:55.463Z,1.83
2023-03-15T23:25:22.473Z,1.10
2023-03-15T23:27:49.142Z,1.60
2023-03-15T23:30:15.562Z,1.30
2023-03-15T23:32:42.105Z,1.10
2023-03-15T23:35:09.527Z,1.10
2023-03-15T23:37:35.928Z,1.20
2023-03-15T23:40:02.369Z,1.23
2023-03-15T23:42:28.828Z,1.40
2023-03-15T23:44:55.641Z,1.02
2023-03-15T23:47:22.948Z,0.90
2023-03-15T23:49:49.954Z,1.42
2023-03-15T23:52:16.403Z,1.52
2023-03-15T23:54:42.787Z,1.38
2023-03-15T23:57:10.238Z,1.50
2023-03-15T23:59:37.139Z,1.70
